Time,TemperatureF,DewpointF,PressureIn,WindDirection,WindDirectionDegrees,WindSpeedMPH,WindSpeedGustMPH,Humidity,HourlyPrecipIn,Conditions,Clouds,dailyrainin,SoftwareType,DateUTC
2013-05-13 00:00:00,47.5,28.7,29.38,WNW,293,0.9,0.9,48,0.00,,,0.00,WUHU216HW,2013-05-13 04:00:00,
2013-05-13 00:01:00,47.5,28.7,29.38,WNW,293,0.9,0.9,48,0.00,,,0.00,WUHU216HW,2013-05-13 04:01:00,
2013-05-13 00:06:00,47.5,28.7,29.38,WNW,293,0.9,0.9,48,0.00,,,0.00,WUHU216HW,2013-05-13 04:06:00,
2013-05-13 00:30:00,45.7,30.4,29.38,WNW,293,4.0,4.0,55,0.00,,,0.00,WUHU216HW,2013-05-13 04:30:00,
2013-05-13 00:35:00,45.7,30.4,29.38,WNW,293,4.0,4.0,55,0.00,,,0.00,WUHU216HW,2013-05-13 04:35:00,
2013-05-13 00:59:00,46.3,30.0,29.38,NNW,338,3.6,3.6,53,0.00,,,0.00,WUHU216HW,2013-05-13 04:59:00,
2013-05-13 01:00:00,46.3,30.0,29.38,NNW,338,3.6,3.6,53,0.00,,,0.00,WUHU216HW,2013-05-13 05:00:00,
2013-05-13 01:05:00,46.3,30.0,29.38,NNW,338,3.6,3.6,53,0.00,,,0.00,WUHU216HW,2013-05-13 05:05:00,
2013-05-13 01:29:00,45.2,30.3,29.38,East,90,2.0,2.0,56,0.00,,,0.00,WUHU216HW,2013-05-13 05:29:00,
2013-05-13 01:30:00,45.2,30.3,29.38,East,90,2.0,2.0,56,0.00,,,0.00,WUHU216HW,2013-05-13 05:30:00,
2013-05-13 01:35:00,45.2,30.3,29.38,East,90,2.0,2.0,56,0.00,,,0.00,WUHU216HW,2013-05-13 05:35:00,
2013-05-13 02:00:00,42.5,30.0,29.37,SE,135,0.2,0.2,61,0.00,,,0.00,WUHU216HW,2013-05-13 06:00:00,
2013-05-13 02:05:00,42.5,30.0,29.37,SE,135,0.2,0.2,61,0.00,,,0.00,WUHU216HW,2013-05-13 06:05:00,
2013-05-13 02:29:00,41.4,31.2,29.37,SSW,203,1.1,1.1,67,0.00,,,0.00,WUHU216HW,2013-05-13 06:29:00,
2013-05-13 02:30:00,41.4,31.2,29.37,SSW,203,1.1,1.1,67,0.00,,,0.00,WUHU216HW,2013-05-13 06:30:00,
2013-05-13 02:35:00,41.4,31.2,29.37,SSW,203,1.1,1.1,67,0.00,,,0.00,WUHU216HW,2013-05-13 06:35:00,
2013-05-13 02:59:00,41.0,31.3,29.38,West,270,0.0,0.0,68,0.00,,,0.00,WUHU216HW,2013-05-13 06:59:00,
2013-05-13 03:00:00,41.0,31.3,29.38,West,270,0.0,0.0,68,0.00,,,0.00,WUHU216HW,2013-05-13 07:00:00,
2013-05-13 03:05:00,41.0,31.3,29.38,West,270,0.0,0.0,68,0.00,,,0.00,WUHU216HW,2013-05-13 07:05:00,
2013-05-13 03:29:00,40.0,31.0,29.38,WNW,293,0.4,0.4,70,0.00,,,0.00,WUHU216HW,2013-05-13 07:29:00,
2013-05-13 03:30:00,40.0,31.0,29.38,WNW,293,0.4,0.4,70,0.00,,,0.00,WUHU216HW,2013-05-13 07:30:00,
2013-05-13 03:35:00,40.0,31.0,29.38,WNW,293,0.4,0.4,70,0.00,,,0.00,WUHU216HW,2013-05-13 07:35:00,
2013-05-13 03:59:00,42.8,31.5,29.38,WNW,293,5.4,5.4,64,0.00,,,0.00,WUHU216HW,2013-05-13 07:59:00,
2013-05-13 04:00:00,42.8,31.5,29.38,WNW,293,5.4,5.4,64,0.00,,,0.00,WUHU216HW,2013-05-13 08:00:00,
2013-05-13 04:05:00,42.8,31.5,29.38,WNW,293,5.4,5.4,64,0.00,,,0.00,WUHU216HW,2013-05-13 08:05:00,
2013-05-13 04:30:00,44.3,30.4,29.37,NW,315,1.8,1.8,58,0.00,,,0.00,WUHU216HW,2013-05-13 08:30:00,
2013-05-13 04:35:00,44.3,30.4,29.37,NW,315,1.8,1.8,58,0.00,,,0.00,WUHU216HW,2013-05-13 08:35:00,
2013-05-13 05:00:00,43.7,30.8,29.38,South,180,3.8,3.8,60,0.00,,,0.00,WUHU216HW,2013-05-13 09:00:00,
2013-05-13 05:05:00,43.7,30.8,29.38,South,180,3.8,3.8,60,0.00,,,0.00,WUHU216HW,2013-05-13 09:05:00,
2013-05-13 05:30:00,43.0,30.1,29.39,SSW,203,1.8,1.8,60,0.00,,,0.00,WUHU216HW,2013-05-13 09:30:00,
2013-05-13 05:35:00,43.0,30.1,29.39,SSW,203,1.8,1.8,60,0.00,,,0.00,WUHU216HW,2013-05-13 09:35:00,
2013-05-13 06:00:00,41.8,30.1,29.40,SSW,203,3.1,3.1,63,0.00,,,0.00,WUHU216HW,2013-05-13 10:00:00,
2013-05-13 06:05:00,41.8,30.1,29.40,SSW,203,3.1,3.1,63,0.00,,,0.00,WUHU216HW,2013-05-13 10:05:00,
2013-05-13 06:30:00,43.0,30.4,29.40,WSW,248,2.0,2.0,61,0.00,,,0.00,WUHU216HW,2013-05-13 10:30:00,
2013-05-13 06:35:00,43.0,30.4,29.40,WSW,248,2.0,2.0,61,0.00,,,0.00,WUHU216HW,2013-05-13 10:35:00,
2013-05-13 07:00:00,43.9,30.1,29.41,WNW,293,2.7,2.7,58,0.00,,,0.00,WUHU216HW,2013-05-13 11:00:00,
2013-05-13 07:05:00,43.9,30.1,29.41,WNW,293,2.7,2.7,58,0.00,,,0.00,WUHU216HW,2013-05-13 11:05:00,
2013-05-13 07:30:00,45.9,31.5,29.42,WSW,248,4.9,4.9,57,0.00,,,0.00,WUHU216HW,2013-05-13 11:30:00,
2013-05-13 07:35:00,45.9,31.5,29.42,WSW,248,4.9,4.9,57,0.00,,,0.00,WUHU216HW,2013-05-13 11:35:00,
2013-05-13 07:59:00,47.2,30.3,29.43,SW,225,5.4,5.4,52,0.00,,,0.00,WUHU216HW,2013-05-13 11:59:00,
2013-05-13 08:00:00,47.2,30.3,29.43,SW,225,5.4,5.4,52,0.00,,,0.00,WUHU216HW,2013-05-13 12:00:00,
2013-05-13 08:05:00,47.2,30.3,29.43,SW,225,5.4,5.4,52,0.00,,,0.00,WUHU216HW,2013-05-13 12:05:00,
2013-05-13 08:30:00,47.7,31.8,29.43,SW,225,4.0,4.0,54,0.00,,,0.00,WUHU216HW,2013-05-13 12:30:00,
2013-05-13 08:35:00,47.7,31.8,29.43,SW,225,4.0,4.0,54,0.00,,,0.00,WUHU216HW,2013-05-13 12:35:00,
2013-05-13 08:59:00,48.8,31.9,29.44,West,270,5.4,5.4,52,0.00,,,0.00,WUHU216HW,2013-05-13 12:59:00,
2013-05-13 09:00:00,48.8,31.9,29.44,West,270,5.4,5.4,52,0.00,,,0.00,WUHU216HW,2013-05-13 13:00:00,
2013-05-13 09:05:00,48.8,31.9,29.44,West,270,5.4,5.4,52,0.00,,,0.00,WUHU216HW,2013-05-13 13:05:00,
2013-05-13 09:29:00,51.1,31.5,29.45,SW,225,5.4,5.4,47,0.00,,,0.00,WUHU216HW,2013-05-13 13:29:00,
2013-05-13 09:30:00,51.1,31.5,29.45,SW,225,5.4,5.4,47,0.00,,,0.00,WUHU216HW,2013-05-13 13:30:00,
2013-05-13 09:35:00,51.1,31.5,29.45,SW,225,5.4,5.4,47,0.00,,,0.00,WUHU216HW,2013-05-13 13:35:00,
2013-05-13 09:59:00,51.5,25.9,29.45,NNW,338,8.5,8.5,37,0.00,,,0.00,WUHU216HW,2013-05-13 13:59:00,
2013-05-13 10:00:00,51.5,25.9,29.45,NNW,338,8.5,8.5,37,0.00,,,0.00,WUHU216HW,2013-05-13 14:00:00,
2013-05-13 10:05:00,51.5,25.9,29.45,NNW,338,8.5,8.5,37,0.00,,,0.00,WUHU216HW,2013-05-13 14:05:00,
2013-05-13 10:30:00,51.5,27.3,29.45,West,270,12.5,12.5,39,0.00,,,0.00,WUHU216HW,2013-05-13 14:30:00,
2013-05-13 10:35:00,51.5,27.3,29.45,West,270,12.5,12.5,39,0.00,,,0.00,WUHU216HW,2013-05-13 14:35:00,
2013-05-13 10:59:00,53.1,24.6,29.44,NW,315,11.6,11.6,33,0.00,,,0.00,WUHU216HW,2013-05-13 14:59:00,
2013-05-13 11:00:00,53.1,24.6,29.44,NW,315,11.6,11.6,33,0.00,,,0.00,WUHU216HW,2013-05-13 15:00:00,
2013-05-13 11:05:00,53.1,24.6,29.44,NW,315,11.6,11.6,33,0.00,,,0.00,WUHU216HW,2013-05-13 15:05:00,
2013-05-13 11:30:00,54.0,26.1,29.44,West,270,6.3,6.3,34,0.00,,,0.00,WUHU216HW,2013-05-13 15:30:00,
2013-05-13 11:35:00,54.0,26.1,29.44,West,270,6.3,6.3,34,0.00,,,0.00,WUHU216HW,2013-05-13 15:35:00,
2013-05-13 11:59:00,53.5,23.6,29.44,West,270,9.2,9.2,31,0.00,,,0.00,WUHU216HW,2013-05-13 15:59:00,
2013-05-13 12:00:00,53.5,23.6,29.44,West,270,9.2,9.2,31,0.00,,,0.00,WUHU216HW,2013-05-13 16:00:00,
2013-05-13 12:05:00,53.5,23.6,29.44,West,270,9.2,9.2,31,0.00,,,0.00,WUHU216HW,2013-05-13 16:05:00,
2013-05-13 12:29:00,54.4,24.3,29.43,WNW,293,15.2,15.2,31,0.00,,,0.00,WUHU216HW,2013-05-13 16:29:00,
2013-05-13 12:30:00,54.4,24.3,29.43,WNW,293,15.2,15.2,31,0.00,,,0.00,WUHU216HW,2013-05-13 16:30:00,
2013-05-13 12:35:00,54.4,24.3,29.43,WNW,293,15.2,15.2,31,0.00,,,0.00,WUHU216HW,2013-05-13 16:35:00,
2013-05-13 12:59:00,56.0,24.0,29.42,WNW,293,21.5,21.5,29,0.00,,,0.00,WUHU216HW,2013-05-13 16:59:00,
2013-05-13 13:00:00,56.0,24.0,29.42,WNW,293,21.5,21.5,29,0.00,,,0.00,WUHU216HW,2013-05-13 17:00:00,
2013-05-13 13:05:00,56.0,24.0,29.42,WNW,293,21.5,21.5,29,0.00,,,0.00,WUHU216HW,2013-05-13 17:05:00,
2013-05-13 13:30:00,55.3,24.3,29.43,NW,315,8.9,8.9,30,0.00,,,0.00,WUHU216HW,2013-05-13 17:30:00,
2013-05-13 13:35:00,55.3,24.3,29.43,NW,315,8.9,8.9,30,0.00,,,0.00,WUHU216HW,2013-05-13 17:35:00,
2013-05-13 13:59:00,55.1,24.9,29.42,WNW,293,9.6,9.6,31,0.00,,,0.00,WUHU216HW,2013-05-13 17:59:00,
2013-05-13 14:00:00,55.1,24.9,29.42,WNW,293,9.6,9.6,31,0.00,,,0.00,WUHU216HW,2013-05-13 18:00:00,
2013-05-13 14:05:00,55.1,24.9,29.42,WNW,293,9.6,9.6,31,0.00,,,0.00,WUHU216HW,2013-05-13 18:05:00,
2013-05-13 14:30:00,57.1,27.4,29.41,WSW,248,9.8,9.8,32,0.00,,,0.00,WUHU216HW,2013-05-13 18:30:00,
2013-05-13 14:35:00,57.1,27.4,29.41,WSW,248,9.8,9.8,32,0.00,,,0.00,WUHU216HW,2013-05-13 18:35:00,
2013-05-13 14:59:00,56.5,27.5,29.41,West,270,17.9,17.9,33,0.00,,,0.00,WUHU216HW,2013-05-13 18:59:00,
2013-05-13 15:00:00,56.5,27.5,29.41,West,270,17.9,17.9,33,0.00,,,0.00,WUHU216HW,2013-05-13 19:00:00,
2013-05-13 15:05:00,56.5,27.5,29.41,West,270,17.9,17.9,33,0.00,,,0.00,WUHU216HW,2013-05-13 19:05:00,
2013-05-13 15:29:00,57.1,30.2,29.41,WSW,248,6.3,6.3,36,0.00,,,0.00,WUHU216HW,2013-05-13 19:29:00,
2013-05-13 15:30:00,57.1,30.2,29.41,WSW,248,6.3,6.3,36,0.00,,,0.00,WUHU216HW,2013-05-13 19:30:00,
2013-05-13 15:35:00,57.1,30.2,29.41,WSW,248,6.3,6.3,36,0.00,,,0.00,WUHU216HW,2013-05-13 19:35:00,
2013-05-13 15:59:00,55.8,27.6,29.41,West,270,14.1,14.1,34,0.00,,,0.00,WUHU216HW,2013-05-13 19:59:00,
2013-05-13 16:00:00,55.8,27.6,29.41,West,270,14.1,14.1,34,0.00,,,0.00,WUHU216HW,2013-05-13 20:00:00,
2013-05-13 16:05:00,55.8,27.6,29.41,West,270,14.1,14.1,34,0.00,,,0.00,WUHU216HW,2013-05-13 20:05:00,
2013-05-13 16:29:00,54.0,31.9,29.41,WNW,293,6.7,6.7,43,0.00,,,0.00,WUHU216HW,2013-05-13 20:29:00,
2013-05-13 16:30:00,54.0,31.9,29.41,WNW,293,6.7,6.7,43,0.00,,,0.00,WUHU216HW,2013-05-13 20:30:00,
2013-05-13 16:35:00,54.0,31.9,29.41,WNW,293,6.7,6.7,43,0.00,,,0.00,WUHU216HW,2013-05-13 20:35:00,
2013-05-13 17:00:00,56.2,30.1,29.41,SW,225,12.8,12.8,37,0.00,,,0.00,WUHU216HW,2013-05-13 21:00:00,
2013-05-13 17:05:00,56.2,30.1,29.41,SW,225,12.8,12.8,37,0.00,,,0.00,WUHU216HW,2013-05-13 21:05:00,
2013-05-13 17:29:00,53.3,33.0,29.42,NW,315,8.7,8.7,46,0.00,,,0.00,WUHU216HW,2013-05-13 21:29:00,
2013-05-13 17:30:00,53.3,33.0,29.42,NW,315,8.7,8.7,46,0.00,,,0.00,WUHU216HW,2013-05-13 21:30:00,
2013-05-13 17:35:00,53.3,33.0,29.42,NW,315,8.7,8.7,46,0.00,,,0.00,WUHU216HW,2013-05-13 21:35:00,
2013-05-13 18:00:00,53.5,29.1,29.41,West,270,15.0,15.0,39,0.00,,,0.00,WUHU216HW,2013-05-13 22:00:00,
2013-05-13 18:05:00,53.5,29.1,29.41,West,270,15.0,15.0,39,0.00,,,0.00,WUHU216HW,2013-05-13 22:05:00,
2013-05-13 18:30:00,54.7,32.5,29.41,WNW,293,9.6,9.6,43,0.00,,,0.00,WUHU216HW,2013-05-13 22:30:00,
2013-05-13 18:35:00,54.7,32.5,29.41,WNW,293,9.6,9.6,43,0.00,,,0.00,WUHU216HW,2013-05-13 22:35:00,
2013-05-13 19:00:00,53.6,29.9,29.41,West,270,17.4,17.4,40,0.00,,,0.00,WUHU216HW,2013-05-13 23:00:00,
2013-05-13 19:05:00,53.6,29.9,29.41,West,270,17.4,17.4,40,0.00,,,0.00,WUHU216HW,2013-05-13 23:05:00,
2013-05-13 19:30:00,52.7,30.2,29.43,WNW,293,8.1,8.1,42,0.00,,,0.00,WUHU216HW,2013-05-13 23:30:00,
2013-05-13 19:35:00,52.7,30.2,29.43,WNW,293,8.1,8.1,42,0.00,,,0.00,WUHU216HW,2013-05-13 23:35:00,
2013-05-13 19:59:00,52.6,30.1,29.43,WNW,293,5.4,5.4,42,0.00,,,0.00,WUHU216HW,2013-05-13 23:59:00,
2013-05-13 20:00:00,52.6,30.1,29.43,WNW,293,5.4,5.4,42,0.00,,,0.00,WUHU216HW,2013-05-14 00:00:00,
2013-05-13 20:05:00,52.6,30.1,29.43,WNW,293,5.4,5.4,42,0.00,,,0.00,WUHU216HW,2013-05-14 00:05:00,
2013-05-13 20:29:00,49.5,29.4,29.44,NW,315,8.5,8.5,46,0.00,,,0.00,WUHU216HW,2013-05-14 00:29:00,
2013-05-13 20:30:00,49.5,29.4,29.44,NW,315,8.5,8.5,46,0.00,,,0.00,WUHU216HW,2013-05-14 00:30:00,
2013-05-13 20:35:00,49.5,29.4,29.44,NW,315,8.5,8.5,46,0.00,,,0.00,WUHU216HW,2013-05-14 00:35:00,
2013-05-13 20:59:00,47.9,30.1,29.45,WNW,293,5.8,5.8,50,0.00,,,0.00,WUHU216HW,2013-05-14 00:59:00,
2013-05-13 21:00:00,47.9,30.1,29.45,WNW,293,5.8,5.8,50,0.00,,,0.00,WUHU216HW,2013-05-14 01:00:00,
2013-05-13 21:05:00,47.9,30.1,29.45,WNW,293,5.8,5.8,50,0.00,,,0.00,WUHU216HW,2013-05-14 01:05:00,
2013-05-13 21:29:00,47.0,30.3,29.47,West,270,3.4,3.4,52,0.00,,,0.00,WUHU216HW,2013-05-14 01:29:00,
2013-05-13 21:30:00,47.0,30.3,29.47,West,270,3.4,3.4,52,0.00,,,0.00,WUHU216HW,2013-05-14 01:30:00,
2013-05-13 21:35:00,47.0,30.3,29.47,West,270,3.4,3.4,52,0.00,,,0.00,WUHU216HW,2013-05-14 01:35:00,
2013-05-13 21:59:00,46.4,30.2,29.49,NW,315,2.5,2.5,53,0.00,,,0.00,WUHU216HW,2013-05-14 01:59:00,
2013-05-13 22:00:00,46.4,30.2,29.49,NW,315,2.5,2.5,53,0.00,,,0.00,WUHU216HW,2013-05-14 02:00:00,
2013-05-13 22:05:00,46.4,30.2,29.49,NW,315,2.5,2.5,53,0.00,,,0.00,WUHU216HW,2013-05-14 02:05:00,
2013-05-13 22:29:00,45.4,29.6,29.49,NW,315,2.5,2.5,54,0.00,,,0.00,WUHU216HW,2013-05-14 02:29:00,
2013-05-13 22:30:00,45.4,29.6,29.49,NW,315,2.5,2.5,54,0.00,,,0.00,WUHU216HW,2013-05-14 02:30:00,
2013-05-13 22:35:00,45.4,29.6,29.49,NW,315,2.5,2.5,54,0.00,,,0.00,WUHU216HW,2013-05-14 02:35:00,
2013-05-13 22:59:00,44.5,28.8,29.50,NW,315,1.1,1.1,54,0.00,,,0.00,WUHU216HW,2013-05-14 02:59:00,
2013-05-13 23:00:00,44.5,28.8,29.50,NW,315,1.1,1.1,54,0.00,,,0.00,WUHU216HW,2013-05-14 03:00:00,
2013-05-13 23:05:00,44.5,28.8,29.50,NW,315,1.1,1.1,54,0.00,,,0.00,WUHU216HW,2013-05-14 03:05:00,
2013-05-13 23:29:00,43.2,29.8,29.51,NW,315,2.5,2.5,59,0.00,,,0.00,WUHU216HW,2013-05-14 03:29:00,
2013-05-13 23:30:00,43.2,29.8,29.51,NW,315,2.5,2.5,59,0.00,,,0.00,WUHU216HW,2013-05-14 03:30:00,
2013-05-13 23:35:00,43.2,29.8,29.51,NW,315,2.5,2.5,59,0.00,,,0.00,WUHU216HW,2013-05-14 03:35:00,
2013-05-13 23:59:00,42.8,30.2,29.52,NNW,338,2.5,2.5,61,0.00,,,0.00,WUHU216HW,2013-05-14 03:59:00,